Time;durP1;ratioP1;P1;durP2;ratioP2;P2;SDS_P1;SDS_P2;PMS_P1;PMS_P2;Temp;Humidity;BMP_temperature;BMP_pressure;BME280_temperature;BME280_humidity;BME280_pressure;Samples;Min_cycle;Max_cycle;Signal;HPM_P1;HPM_P2
2022/05/06 00:00:06;;;;;;;23.43;12.67;;;12.80;99.90;;;;;;5046937;28;20639;-90
2022/05/06 00:02:32;;;;;;;29.43;12.93;;;12.80;99.90;;;;;;5030290;28;20218;-88
2022/05/06 00:04:58;;;;;;;20.97;11.57;;;12.80;99.90;;;;;;5014122;28;20222;-91
2022/05/06 00:07:23;;;;;;;24.10;11.37;;;12.80;99.90;;;;;;5046892;28;20312;-89
2022/05/06 00:09:49;;;;;;;22.17;10.30;;;12.80;99.90;;;;;;5047151;28;20226;-90
2022/05/06 00:12:18;;;;;;;19.97;11.10;;;12.80;99.90;;;;;;5029641;28;20225;-90
2022/05/06 00:14:45;;;;;;;21.27;10.50;;;12.70;99.90;;;;;;5046937;28;20643;-89
2022/05/06 00:17:11;;;;;;;21.20;8.67;;;12.60;99.90;;;;;;5046451;28;20224;-89
2022/05/06 00:19:37;;;;;;;27.60;11.77;;;12.60;99.90;;;;;;5047203;28;20214;-89
2022/05/06 00:22:04;;;;;;;24.30;11.33;;;12.60;99.90;;;;;;5046466;28;20763;-91
2022/05/06 00:24:29;;;;;;;22.20;10.00;;;12.60;99.90;;;;;;5045149;28;20226;-89
2022/05/06 00:26:56;;;;;;;26.30;11.40;;;12.50;99.90;;;;;;5029563;28;20717;-88
2022/05/06 00:29:22;;;;;;;19.33;9.90;;;12.50;99.90;;;;;;5063270;28;20194;-89
2022/05/06 00:31:48;;;;;;;19.33;11.50;;;12.60;99.90;;;;;;5029482;28;20256;-88
2022/05/06 00:34:14;;;;;;;24.67;12.03;;;12.60;99.90;;;;;;5012676;28;20213;-93
2022/05/06 00:36:39;;;;;;;22.40;10.80;;;12.60;99.90;;;;;;5013202;28;20209;-89
2022/05/06 00:39:05;;;;;;;24.13;12.03;;;12.60;99.90;;;;;;5029473;28;20208;-89
2022/05/06 00:41:35;;;;;;;22.50;10.23;;;12.60;99.90;;;;;;5046386;28;20198;-90
2022/05/06 00:44:01;;;;;;;22.63;10.67;;;12.60;99.90;;;;;;5046229;28;20246;-90
2022/05/06 00:46:27;;;;;;;27.93;11.30;;;12.60;99.90;;;;;;5046521;28;20245;-90
2022/05/06 00:48:55;;;;;;;20.93;12.17;;;12.60;99.90;;;;;;5028461;28;20578;-89
2022/05/06 00:51:21;;;;;;;21.97;10.53;;;12.50;99.90;;;;;;5029167;28;20351;-89
2022/05/06 00:53:47;;;;;;;21.20;10.30;;;12.60;99.90;;;;;;5004493;28;20236;-89
2022/05/06 00:56:16;;;;;;;21.63;12.30;;;12.60;99.90;;;;;;5027594;28;20226;-89
2022/05/06 00:58:44;;;;;;;27.20;12.40;;;12.50;99.90;;;;;;5046737;28;21173;-90
2022/05/06 01:01:10;;;;;;;17.07;11.27;;;12.50;99.90;;;;;;5047442;28;20221;-93
2022/05/06 01:03:36;;;;;;;30.67;12.50;;;12.40;99.90;;;;;;5045670;28;20217;-89
2022/05/06 01:06:13;;;;;;;19.13;12.07;;;12.30;99.90;;;;;;5045187;28;20229;-91
2022/05/06 01:08:39;;;;;;;26.23;13.73;;;12.40;99.90;;;;;;5046626;28;20181;-93
2022/05/06 01:11:06;;;;;;;24.10;12.07;;;12.40;99.90;;;;;;5028110;28;20291;-88
2022/05/06 01:13:37;;;;;;;21.03;10.73;;;12.40;99.90;;;;;;5045401;28;22032;-89
2022/05/06 01:16:03;;;;;;;22.70;9.53;;;12.30;99.90;;;;;;5045119;28;20226;-89
2022/05/06 01:18:30;;;;;;;26.73;10.37;;;12.20;99.90;;;;;;5045838;28;21069;-92
2022/05/06 01:20:59;;;;;;;16.63;9.53;;;12.20;99.90;;;;;;5045189;28;20190;-88
2022/05/06 01:23:24;;;;;;;26.70;12.30;;;12.20;99.90;;;;;;5045773;28;20185;-88
2022/05/06 01:25:51;;;;;;;23.03;11.20;;;12.20;99.90;;;;;;5045318;28;20225;-88
2022/05/06 01:28:18;;;;;;;25.63;11.87;;;12.20;99.90;;;;;;5046266;28;20292;-88
2022/05/06 01:30:47;;;;;;;22.73;10.70;;;12.30;99.90;;;;;;5044716;28;20697;-90
2022/05/06 01:33:15;;;;;;;26.27;11.37;;;12.30;99.90;;;;;;5061337;28;21718;-89
2022/05/06 01:35:47;;;;;;;29.07;12.33;;;12.30;99.90;;;;;;5045434;28;20212;-90
2022/05/06 01:38:35;;;;;;;23.23;10.10;;;12.30;99.90;;;;;;5046215;28;20214;-92
2022/05/06 01:41:03;;;;;;;20.10;8.60;;;12.20;99.90;;;;;;5044577;28;20662;-90
2022/05/06 01:43:43;;;;;;;22.33;10.63;;;12.10;99.90;;;;;;5045336;28;21115;-90
2022/05/06 01:46:13;;;;;;;23.20;9.87;;;12.20;99.90;;;;;;5045615;28;20229;-89
2022/05/06 01:48:41;;;;;;;21.47;8.43;;;12.20;99.90;;;;;;5046115;28;20230;-91
2022/05/06 01:51:10;;;;;;;21.70;9.30;;;12.10;99.90;;;;;;5046114;28;20186;-90
2022/05/06 01:53:36;;;;;;;13.27;7.27;;;12.10;99.90;;;;;;5045733;28;20200;-91
2022/05/06 01:56:03;;;;;;;20.13;9.83;;;12.10;99.90;;;;;;5044822;28;20225;-89
2022/05/06 01:58:28;;;;;;;22.40;8.70;;;12.10;99.90;;;;;;5028332;28;20221;-90
2022/05/06 02:00:54;;;;;;;22.00;8.67;;;12.10;99.90;;;;;;5045492;28;20209;-90
2022/05/06 02:06:04;;;;;;;14.03;6.33;;;12.10;99.90;;;;;;5045831;28;20206;-89
2022/05/06 02:08:30;;;;;;;13.17;8.00;;;12.00;99.90;;;;;;5044667;28;20192;-90
2022/05/06 02:10:56;;;;;;;12.97;5.80;;;12.00;99.90;;;;;;5044541;28;20213;-88
2022/05/06 02:13:21;;;;;;;14.00;5.67;;;11.90;99.90;;;;;;5044748;28;20735;-89
2022/05/06 02:15:47;;;;;;;15.03;7.87;;;11.90;99.90;;;;;;5028111;28;20209;-89
2022/05/06 02:18:13;;;;;;;14.67;6.40;;;11.90;99.90;;;;;;5043645;28;21369;-89
2022/05/06 02:20:39;;;;;;;33.10;6.43;;;11.90;99.90;;;;;;5043044;28;20293;-91
2022/05/06 02:23:04;;;;;;;10.00;4.93;;;11.80;99.90;;;;;;5043432;28;20421;-89
2022/05/06 02:25:30;;;;;;;11.07;7.20;;;11.80;99.90;;;;;;5041918;28;20725;-91
2022/05/06 02:27:57;;;;;;;12.47;5.10;;;11.80;99.90;;;;;;5025881;28;20250;-90
2022/05/06 02:33:12;;;;;;;9.87;5.70;;;11.50;99.90;;;;;;5045019;28;20186;-91
2022/05/06 02:35:39;;;;;;;5.77;3.63;;;11.50;99.90;;;;;;5044972;28;20202;-89
2022/05/06 02:38:06;;;;;;;5.23;2.63;;;11.30;99.90;;;;;;5045511;28;20233;-89
2022/05/06 02:40:34;;;;;;;6.73;3.47;;;11.30;99.90;;;;;;5027847;28;20210;-89
2022/05/06 02:43:01;;;;;;;5.20;3.83;;;11.10;99.90;;;;;;5060544;28;20221;-89
2022/05/06 02:45:27;;;;;;;10.90;4.00;;;11.20;99.90;;;;;;5043854;28;21038;-94
2022/05/06 02:47:53;;;;;;;7.57;4.37;;;11.00;99.90;;;;;;5044479;28;20201;-87
2022/05/06 02:50:19;;;;;;;11.00;5.33;;;11.00;99.90;;;;;;5044176;28;20235;-89
2022/05/06 02:52:45;;;;;;;10.63;4.83;;;11.10;99.90;;;;;;5044294;28;20218;-92
2022/05/06 02:55:11;;;;;;;13.37;5.87;;;11.20;99.90;;;;;;5027384;28;20230;-89
2022/05/06 02:57:37;;;;;;;11.20;4.87;;;11.20;99.90;;;;;;5044728;28;20621;-91
2022/05/06 03:00:04;;;;;;;18.83;5.93;;;11.10;99.90;;;;;;5044827;28;20190;-88
2022/05/06 03:02:30;;;;;;;10.70;5.47;;;11.20;99.90;;;;;;5044291;28;20365;-88
2022/05/06 03:04:56;;;;;;;13.80;5.47;;;11.20;99.90;;;;;;5043954;28;20233;-90
2022/05/06 03:07:22;;;;;;;14.57;5.93;;;11.30;99.90;;;;;;5028078;28;20245;-88
2022/05/06 03:09:48;;;;;;;8.77;4.83;;;11.30;99.90;;;;;;5026940;28;20202;-89
2022/05/06 03:12:16;;;;;;;11.57;4.73;;;11.30;99.90;;;;;;5043752;28;20218;-88
2022/05/06 03:14:42;;;;;;;12.20;4.20;;;11.30;99.90;;;;;;5044727;28;20272;-90
2022/05/06 03:17:08;;;;;;;8.03;5.30;;;11.20;99.90;;;;;;5027506;28;20217;-89
2022/05/06 03:19:33;;;;;;;13.27;5.60;;;11.20;99.90;;;;;;5011039;28;20213;-91
2022/05/06 03:21:59;;;;;;;21.70;5.60;;;11.20;99.90;;;;;;5043889;28;20246;-90
2022/05/06 03:24:25;;;;;;;6.93;4.53;;;11.20;99.90;;;;;;5010524;28;20490;-89
2022/05/06 03:26:51;;;;;;;8.30;4.17;;;11.30;99.90;;;;;;5044285;28;20178;-90
2022/05/06 03:29:17;;;;;;;17.10;4.53;;;11.30;99.90;;;;;;5043489;28;20228;-90
2022/05/06 03:31:43;;;;;;;13.00;5.70;;;11.30;99.90;;;;;;5043207;28;20221;-91
2022/05/06 03:34:08;;;;;;;9.07;6.13;;;11.30;99.90;;;;;;5013521;28;20226;-90
2022/05/06 03:36:34;;;;;;;10.50;5.80;;;11.30;99.90;;;;;;5047130;28;20242;-90
2022/05/06 03:39:03;;;;;;;11.30;6.17;;;11.40;99.90;;;;;;5030959;28;20658;-92
2022/05/06 03:41:29;;;;;;;11.10;5.93;;;11.40;99.90;;;;;;5048472;28;20186;-89
2022/05/06 03:43:55;;;;;;;10.77;4.80;;;11.40;99.90;;;;;;5030849;28;20301;-91
2022/05/06 03:46:21;;;;;;;8.73;5.50;;;11.30;99.90;;;;;;5029591;28;20844;-90
2022/05/06 03:48:46;;;;;;;14.07;6.53;;;11.30;99.90;;;;;;5030751;28;20701;-89
2022/05/06 03:51:21;;;;;;;16.17;6.67;;;11.30;99.90;;;;;;5048432;28;20638;-90
2022/05/06 03:53:52;;;;;;;12.13;6.33;;;11.40;99.90;;;;;;5032577;28;20328;-89
2022/05/06 03:56:19;;;;;;;13.10;6.00;;;11.40;99.90;;;;;;5046824;28;20292;-88
2022/05/06 03:58:45;;;;;;;8.30;4.37;;;11.40;99.90;;;;;;5046150;28;20317;-90
2022/05/06 04:01:12;;;;;;;10.57;4.97;;;11.40;99.90;;;;;;5030064;28;20333;-93
2022/05/06 04:03:40;;;;;;;7.83;5.10;;;11.30;99.90;;;;;;5046821;28;20230;-89
2022/05/06 04:06:06;;;;;;;6.10;3.70;;;11.30;99.90;;;;;;5047792;28;20214;-91
2022/05/06 04:08:32;;;;;;;8.33;3.87;;;11.30;99.90;;;;;;5014516;28;20194;-90
2022/05/06 04:10:58;;;;;;;7.17;3.60;;;11.30;99.90;;;;;;5030056;28;20568;-88
2022/05/06 04:13:24;;;;;;;7.33;3.77;;;11.30;99.90;;;;;;5029975;28;20222;-89
2022/05/06 04:15:50;;;;;;;8.50;4.13;;;11.30;99.90;;;;;;5046242;28;20761;-93
2022/05/06 04:18:17;;;;;;;6.33;3.53;;;11.30;99.90;;;;;;5030405;28;20234;-90
2022/05/06 04:23:31;;;;;;;8.37;4.43;;;11.40;99.90;;;;;;5047559;28;20320;-93
2022/05/06 04:26:02;;;;;;;7.40;4.10;;;11.40;99.90;;;;;;5030288;28;20229;-94
2022/05/06 04:28:29;;;;;;;7.90;4.13;;;11.30;99.90;;;;;;5045310;28;20210;-90
2022/05/06 04:30:55;;;;;;;19.93;4.00;;;11.30;99.90;;;;;;5029121;28;20708;-89
2022/05/06 04:33:24;;;;;;;5.03;3.77;;;11.30;99.90;;;;;;5054671;28;20300;-92
2022/05/06 04:35:50;;;;;;;9.33;4.50;;;11.30;99.90;;;;;;5030518;28;20201;-89
2022/05/06 04:38:17;;;;;;;24.60;5.63;;;11.30;99.90;;;;;;5029797;28;20225;-91
2022/05/06 04:40:43;;;;;;;6.00;3.97;;;11.40;99.90;;;;;;5046733;28;20244;-92
2022/05/06 04:43:09;;;;;;;5.83;3.83;;;11.40;99.90;;;;;;5046341;28;20206;-89
2022/05/06 04:45:41;;;;;;;4.77;3.57;;;11.40;99.90;;;;;;5029071;28;20252;-91
2022/05/06 04:48:08;;;;;;;18.63;3.93;;;11.40;99.90;;;;;;5046335;28;20185;-90
2022/05/06 04:50:35;;;;;;;7.67;4.33;;;11.50;99.90;;;;;;5029248;28;20190;-92
2022/05/06 04:53:01;;;;;;;8.77;4.70;;;11.50;99.90;;;;;;5029692;28;20225;-90
2022/05/06 04:55:28;;;;;;;6.77;3.80;;;11.60;99.90;;;;;;5028464;28;20229;-90
2022/05/06 04:57:53;;;;;;;8.87;4.40;;;11.70;99.90;;;;;;5045375;28;20221;-91
2022/05/06 05:00:22;;;;;;;5.93;4.10;;;11.80;99.90;;;;;;5045591;28;20220;-89
2022/05/06 05:02:48;;;;;;;10.23;4.53;;;11.70;99.90;;;;;;5046205;28;20220;-90
2022/05/06 05:05:15;;;;;;;6.43;3.40;;;11.70;99.90;;;;;;5046605;28;20375;-91
2022/05/06 05:07:41;;;;;;;9.63;4.23;;;11.70;99.90;;;;;;5045894;28;20217;-89
2022/05/06 05:10:10;;;;;;;5.93;3.27;;;11.70;99.90;;;;;;5029368;28;20607;-89
2022/05/06 05:12:36;;;;;;;5.03;3.23;;;11.60;99.90;;;;;;5046679;28;20240;-89
2022/05/06 05:15:03;;;;;;;6.67;3.70;;;11.70;99.90;;;;;;5045894;28;20256;-92
2022/05/06 05:17:29;;;;;;;9.47;4.63;;;11.90;99.90;;;;;;5046315;28;20174;-87
2022/05/06 05:19:55;;;;;;;4.27;3.33;;;12.00;99.90;;;;;;5045245;28;20217;-92
2022/05/06 05:22:21;;;;;;;35.30;5.67;;;12.00;99.90;;;;;;5045692;28;20246;-89
2022/05/06 05:24:48;;;;;;;7.20;5.03;;;12.00;99.90;;;;;;5046095;28;20226;-89
2022/05/06 05:27:14;;;;;;;9.87;4.63;;;12.00;99.90;;;;;;5044625;28;20227;-89
2022/05/06 05:29:41;;;;;;;10.13;5.33;;;12.00;99.90;;;;;;5045704;28;20186;-91
2022/05/06 05:32:07;;;;;;;7.20;4.90;;;12.00;99.90;;;;;;5046885;28;20875;-89
2022/05/06 05:34:33;;;;;;;8.00;4.90;;;12.10;99.90;;;;;;5046471;28;20217;-88
2022/05/06 05:36:58;;;;;;;8.87;4.87;;;12.00;99.90;;;;;;5029711;28;20233;-90
2022/05/06 05:39:24;;;;;;;7.57;5.07;;;12.00;99.90;;;;;;5061861;28;20213;-89
2022/05/06 05:41:50;;;;;;;5.50;3.67;;;12.00;99.90;;;;;;5047232;28;20194;-90
2022/05/06 05:49:44;;;;;;;7.57;5.10;;;12.00;99.90;;;;;;5051089;28;20232;-86
2022/05/06 05:52:11;;;;;;;5.97;3.80;;;12.10;99.90;;;;;;5031189;28;20564;-87
2022/05/06 05:54:37;;;;;;;7.50;3.70;;;12.00;99.90;;;;;;5046711;28;20228;-89
2022/05/06 05:57:04;;;;;;;9.20;4.87;;;12.00;99.90;;;;;;5044460;28;20239;-88
2022/05/06 05:59:29;;;;;;;8.27;5.23;;;12.00;99.90;;;;;;5046360;28;20182;-89
2022/05/06 06:01:56;;;;;;;11.63;5.63;;;12.20;99.90;;;;;;5027733;28;20346;-88
2022/05/06 06:04:21;;;;;;;9.47;6.07;;;12.20;99.90;;;;;;5044607;28;20291;-86
2022/05/06 06:06:48;;;;;;;10.00;4.87;;;12.40;99.90;;;;;;5044118;28;20674;-87
2022/05/06 06:09:14;;;;;;;6.80;4.93;;;12.20;99.90;;;;;;5045796;28;20224;-84
2022/05/06 06:11:40;;;;;;;12.03;6.50;;;12.20;99.90;;;;;;5044295;28;20182;-85
2022/05/06 06:14:05;;;;;;;7.70;4.70;;;12.30;99.90;;;;;;5045113;28;20228;-86
2022/05/06 06:16:31;;;;;;;10.17;6.03;;;12.40;99.90;;;;;;5030654;28;20214;-85
2022/05/06 06:18:58;;;;;;;10.47;4.93;;;12.60;99.90;;;;;;5029309;28;20264;-93
2022/05/06 06:21:25;;;;;;;7.90;3.90;;;12.60;99.90;;;;;;5046425;28;20213;-86
2022/05/06 06:23:51;;;;;;;7.90;3.77;;;12.80;99.90;;;;;;5045151;28;20197;-88
2022/05/06 06:26:16;;;;;;;9.50;4.57;;;12.90;99.90;;;;;;5046841;28;20573;-87
2022/05/06 06:28:42;;;;;;;9.17;3.53;;;12.90;99.90;;;;;;5043613;28;20599;-88
2022/05/06 06:31:08;;;;;;;5.73;3.73;;;13.10;99.90;;;;;;5044359;28;20563;-86
2022/05/06 06:33:37;;;;;;;5.87;3.83;;;13.40;99.90;;;;;;5043961;28;20214;-85
2022/05/06 06:36:09;;;;;;;4.90;3.30;;;13.50;99.90;;;;;;5045894;28;20654;-86
2022/05/06 06:38:35;;;;;;;3.93;3.17;;;13.40;99.90;;;;;;5045082;28;20208;-84
2022/05/06 06:41:01;;;;;;;4.50;3.80;;;13.50;99.90;;;;;;5027597;28;20237;-91
2022/05/06 06:43:27;;;;;;;4.37;2.70;;;13.60;99.90;;;;;;5045810;28;20631;-91
2022/05/06 06:45:53;;;;;;;4.30;2.83;;;13.80;99.90;;;;;;5044120;28;20229;-89
2022/05/06 06:48:19;;;;;;;4.03;3.47;;;14.00;99.90;;;;;;5044390;28;20210;-88
2022/05/06 06:50:45;;;;;;;4.13;2.70;;;14.30;99.90;;;;;;5045264;28;20654;-88
2022/05/06 06:53:11;;;;;;;5.30;2.97;;;14.60;99.90;;;;;;5044260;28;20213;-88
2022/05/06 06:55:37;;;;;;;4.00;3.53;;;14.50;99.90;;;;;;5044241;28;20812;-88
2022/05/06 06:58:03;;;;;;;8.43;4.27;;;15.00;99.90;;;;;;5043049;28;20226;-89
2022/05/06 07:00:29;;;;;;;6.20;4.03;;;15.10;99.90;;;;;;5043421;28;20244;-88
2022/05/06 07:02:57;;;;;;;7.07;4.07;;;15.50;99.90;;;;;;5044544;28;20217;-86
2022/05/06 07:05:23;;;;;;;5.37;4.07;;;15.50;99.90;;;;;;5028143;28;20206;-85
2022/05/06 07:13:18;;;;;;;7.03;4.53;;;15.30;99.90;;;;;;5049593;28;20670;-91
2022/05/06 07:15:44;;;;;;;4.80;3.87;;;15.40;99.90;;;;;;5047384;28;20221;-86
2022/05/06 07:18:10;;;;;;;6.77;3.93;;;15.70;99.90;;;;;;5047245;28;20212;-85
2022/05/06 07:20:35;;;;;;;6.10;3.77;;;16.10;99.90;;;;;;5015011;28;20277;-88
2022/05/06 07:23:02;;;;;;;6.37;3.77;;;15.90;99.90;;;;;;5048414;28;20244;-87
2022/05/06 07:25:28;;;;;;;5.23;3.73;;;16.00;99.90;;;;;;5048583;28;20815;-85
2022/05/06 07:27:54;;;;;;;4.53;3.37;;;16.40;99.90;;;;;;5049283;28;20279;-91
2022/05/06 07:30:19;;;;;;;4.27;3.27;;;16.30;99.90;;;;;;5048264;28;20253;-87
2022/05/06 07:32:45;;;;;;;6.27;3.63;;;16.20;99.90;;;;;;5030981;28;20190;-88
2022/05/06 07:35:11;;;;;;;5.63;3.30;;;16.30;99.90;;;;;;5029714;28;20216;-86
2022/05/06 07:37:37;;;;;;;4.73;3.30;;;16.20;99.90;;;;;;5046504;28;20210;-91
2022/05/06 07:40:04;;;;;;;5.13;3.40;;;16.50;99.90;;;;;;5046550;28;20960;-90
2022/05/06 07:42:31;;;;;;;4.07;3.30;;;16.40;99.90;;;;;;5046607;28;20296;-91
2022/05/06 07:45:01;;;;;;;5.20;3.70;;;16.80;99.90;;;;;;5048567;28;20237;-88
2022/05/06 07:47:27;;;;;;;7.13;3.57;;;17.30;99.90;;;;;;5048392;28;20197;-90
2022/05/06 07:49:53;;;;;;;3.73;2.43;;;18.20;99.90;;;;;;5031693;28;20230;-92
2022/05/06 07:52:18;;;;;;;3.07;2.37;;;18.80;99.90;;;;;;5046356;28;20690;-91
2022/05/06 07:54:44;;;;;;;2.73;2.27;;;18.70;99.90;;;;;;5030526;28;20496;-92
2022/05/06 07:57:10;;;;;;;2.27;1.73;;;18.90;99.90;;;;;;5031077;28;20273;-92
2022/05/06 07:59:36;;;;;;;2.60;1.70;;;18.80;99.90;;;;;;5047580;28;20201;-92
2022/05/06 08:04:48;;;;;;;3.80;1.80;;;18.90;99.90;;;;;;5045784;28;20878;-90
2022/05/06 08:07:15;;;;;;;3.03;2.20;;;19.40;99.90;;;;;;5047694;28;20247;-90
2022/05/06 08:09:41;;;;;;;2.00;1.60;;;20.00;99.90;;;;;;5013231;28;20214;-91
2022/05/06 08:12:08;;;;;;;2.37;2.13;;;21.70;99.90;;;;;;5046003;28;20562;-91
2022/05/06 08:14:33;;;;;;;1.63;1.47;;;21.50;99.90;;;;;;5028952;28;20247;-90
2022/05/06 08:16:59;;;;;;;2.50;1.93;;;22.40;99.90;;;;;;5044629;28;20218;-90
2022/05/06 08:19:26;;;;;;;1.97;1.77;;;22.70;99.90;;;;;;5044445;28;20283;-90
2022/05/06 08:21:52;;;;;;;3.90;2.73;;;23.90;99.90;;;;;;5029515;28;20226;-92
2022/05/06 08:24:22;;;;;;;2.13;1.93;;;25.50;99.90;;;;;;5045986;28;20236;-90
2022/05/06 08:26:48;;;;;;;1.70;1.47;;;25.50;99.90;;;;;;5046868;28;20206;-91
2022/05/06 08:29:15;;;;;;;1.77;1.50;;;24.50;99.90;;;;;;5029659;28;20458;-89
2022/05/06 08:31:41;;;;;;;2.43;1.60;;;23.50;99.90;;;;;;5029965;28;20214;-92
2022/05/06 08:34:16;;;;;;;2.40;2.20;;;23.60;99.90;;;;;;5047778;28;20543;-91
2022/05/06 08:36:43;;;;;;;2.53;2.10;;;23.80;99.90;;;;;;5047350;28;20677;-91
2022/05/06 08:39:11;;;;;;;2.70;2.33;;;24.70;99.90;;;;;;5046636;28;20635;-93
2022/05/06 08:41:38;;;;;;;3.58;2.38;;;25.80;99.90;;;;;;5046844;28;20225;-91
2022/05/06 08:52:29;;;;;;;2.90;2.38;;;24.60;99.90;;;;;;5046427;28;20224;-90
2022/05/06 08:54:55;;;;;;;2.30;2.10;;;25.00;99.90;;;;;;5046077;28;20296;-92
2022/05/06 08:57:22;;;;;;;2.67;1.58;;;26.00;99.90;;;;;;5028135;28;20325;-92
2022/05/06 08:59:52;;;;;;;2.20;1.77;;;25.50;99.90;;;;;;5028356;28;20243;-91
2022/05/06 09:02:18;;;;;;;3.58;1.85;;;26.30;99.90;;;;;;5044908;28;20268;-90
2022/05/06 09:04:44;;;;;;;3.90;1.80;;;26.60;99.90;;;;;;5045016;28;20305;-92
2022/05/06 09:07:19;;;;;;;3.53;2.05;;;27.50;99.90;;;;;;5045841;28;20306;-93
2022/05/06 09:10:15;;;;;;;2.63;2.00;;;28.20;99.90;;;;;;5044397;28;20228;-92
2022/05/06 09:12:45;;;;;;;2.00;1.50;;;29.40;99.90;;;;;;5045404;28;20847;-93
2022/05/06 09:18:00;;;;;;;2.42;1.77;;;27.20;99.90;;;;;;5044697;28;20210;-92
2022/05/06 09:20:27;;;;;;;1.65;1.55;;;26.30;99.90;;;;;;5045114;28;20190;-94
2022/05/06 09:22:55;;;;;;;1.98;1.77;;;25.90;99.90;;;;;;5044532;28;20218;-91
2022/05/06 09:25:38;;;;;;;2.88;1.90;;;26.60;99.90;;;;;;5045000;28;20540;-90
2022/05/06 09:28:05;;;;;;;3.97;1.88;;;26.50;99.90;;;;;;5044593;28;20740;-93
2022/05/06 09:30:33;;;;;;;6.05;2.15;;;28.00;99.90;;;;;;5043773;28;20225;-91
2022/05/06 09:32:59;;;;;;;2.10;1.90;;;28.80;99.90;;;;;;5044427;28;20186;-92
2022/05/06 09:35:32;;;;;;;3.20;2.90;;;29.10;99.90;;;;;;5045456;28;20834;-93
2022/05/06 09:38:03;;;;;;;8.23;3.22;;;28.60;99.90;;;;;;5043588;28;20209;-90
2022/05/06 09:40:30;;;;;;;2.90;2.63;;;26.60;99.90;;;;;;5045736;28;20633;-92
2022/05/06 09:42:58;;;;;;;3.97;2.80;;;26.30;99.90;;;;;;5043531;28;20314;-93
2022/05/06 09:45:33;;;;;;;3.90;3.17;;;26.10;99.90;;;;;;5044118;28;20233;-91
2022/05/06 09:48:00;;;;;;;5.45;3.15;;;25.70;99.90;;;;;;5043384;28;20178;-91
2022/05/06 09:50:34;;;;;;;5.88;3.45;;;24.20;99.90;;;;;;5028797;28;20197;-92
2022/05/06 09:53:02;;;;;;;3.65;3.13;;;23.70;99.90;;;;;;5043593;28;20236;-91
2022/05/06 09:55:31;;;;;;;4.70;2.88;;;23.00;99.90;;;;;;5044174;28;20230;-92
2022/05/06 09:57:59;;;;;;;4.10;3.08;;;24.90;99.90;;;;;;5027551;28;20218;-92
2022/05/06 10:00:29;;;;;;;4.13;3.40;;;26.10;99.90;;;;;;5045588;28;20210;-90
2022/05/06 10:02:55;;;;;;;5.07;3.17;;;27.40;99.90;;;;;;5044287;28;20182;-94
2022/05/06 10:05:25;;;;;;;5.47;3.65;;;27.70;99.90;;;;;;5044132;28;20217;-92
2022/05/06 10:07:58;;;;;;;5.03;3.05;;;28.30;99.90;;;;;;5027389;28;20678;-92
2022/05/06 10:10:29;;;;;;;5.47;3.03;;;27.90;99.90;;;;;;5044128;28;20224;-90
2022/05/06 10:13:01;;;;;;;5.10;2.95;;;27.00;99.90;;;;;;5044568;28;20202;-89
2022/05/06 10:15:29;;;;;;;3.85;3.35;;;25.60;99.90;;;;;;5044224;28;20304;-91
2022/05/06 10:17:57;;;;;;;5.28;3.42;;;26.00;99.90;;;;;;5044507;28;20200;-91
2022/05/06 10:20:44;;;;;;;8.13;3.70;;;25.30;99.90;;;;;;5044502;28;20665;-90
2022/05/06 10:23:15;;;;;;;4.10;2.90;;;25.20;99.90;;;;;;5044633;28;20217;-92
2022/05/06 10:25:41;;;;;;;9.35;3.70;;;25.10;99.90;;;;;;5044743;28;20228;-90
2022/05/06 10:34:12;;;;;;;4.45;3.38;;;27.40;99.90;;;;;;5044664;28;20256;-90
2022/05/06 10:36:43;;;;;;;4.03;3.58;;;27.70;99.90;;;;;;5043429;28;20218;-91
2022/05/06 10:39:22;;;;;;;5.57;3.05;;;26.50;99.90;;;;;;5043114;28;20185;-92
2022/05/06 10:42:09;;;;;;;4.63;3.10;;;26.00;99.90;;;;;;5043396;28;20178;-90
2022/05/06 10:44:39;;;;;;;3.80;2.92;;;24.60;99.90;;;;;;5027814;28;20237;-92
2022/05/06 10:47:11;;;;;;;6.10;2.80;;;24.50;99.90;;;;;;5026014;28;20307;-89
2022/05/06 10:49:40;;;;;;;3.60;2.05;;;25.00;99.90;;;;;;5043606;28;20217;-89
2022/05/06 10:52:20;;;;;;;2.95;2.17;;;25.90;99.90;;;;;;5043849;28;20217;-89
2022/05/06 10:54:50;;;;;;;3.88;2.50;;;25.30;99.90;;;;;;5043039;28;20225;-91
2022/05/06 10:57:17;;;;;;;5.90;2.38;;;24.90;99.90;;;;;;5046385;28;20228;-91
2022/05/06 11:00:02;;;;;;;4.63;2.85;;;24.30;99.90;;;;;;5044830;28;20194;-89
2022/05/06 11:02:31;;;;;;;3.33;2.30;;;24.70;99.90;;;;;;5043658;28;20213;-90
2022/05/06 11:05:02;;;;;;;2.67;2.47;;;25.10;99.90;;;;;;5043802;28;20225;-92
2022/05/06 11:07:30;;;;;;;2.15;1.95;;;24.70;99.90;;;;;;5044197;28;20257;-94
2022/05/06 11:09:59;;;;;;;3.10;2.70;;;23.90;99.90;;;;;;5011425;28;20288;-95
2022/05/06 11:12:34;;;;;;;6.32;3.22;;;23.60;99.90;;;;;;5045695;28;20290;-93
2022/05/06 11:15:03;;;;;;;6.15;3.28;;;25.40;99.90;;;;;;5046528;28;20209;-93
2022/05/06 11:17:33;;;;;;;5.70;3.15;;;26.30;99.90;;;;;;5048647;28;20170;-94
2022/05/06 11:20:05;;;;;;;6.00;4.18;;;26.30;99.90;;;;;;5015049;28;20678;-93
2022/05/06 11:22:33;;;;;;;3.55;2.83;;;25.60;99.90;;;;;;5045569;28;20270;-94
2022/05/06 11:25:02;;;;;;;5.60;3.45;;;26.30;99.90;;;;;;5030998;28;20234;-94
2022/05/06 11:27:28;;;;;;;6.45;4.45;;;25.90;99.90;;;;;;5044052;28;20210;-92
2022/05/06 11:29:58;;;;;;;4.18;3.38;;;26.20;99.90;;;;;;5027428;28;20239;-93
2022/05/06 11:32:29;;;;;;;4.88;3.80;;;25.40;99.90;;;;;;5044904;28;20170;-91
2022/05/06 11:34:59;;;;;;;6.65;3.83;;;24.40;99.90;;;;;;5043566;28;20730;-93
2022/05/06 11:37:27;;;;;;;5.35;4.07;;;24.70;99.90;;;;;;5042229;28;20214;-91
2022/05/06 11:40:18;;;;;;;9.93;4.30;;;24.80;99.90;;;;;;5043569;28;20236;-91
2022/05/06 11:42:40;;;;;;;7.50;4.40;;;23.30;99.90;;;;;;5046172;28;20241;-92
2022/05/06 11:47:51;;;;;;;6.97;4.40;;;23.00;99.90;;;;;;5045683;28;20185;-91
2022/05/06 11:50:17;;;;;;;5.28;4.35;;;22.90;99.90;;;;;;5028055;28;20245;-92
2022/05/06 11:52:45;;;;;;;5.57;4.07;;;23.20;99.90;;;;;;5046499;28;20275;-93
2022/05/06 11:55:12;;;;;;;5.90;3.80;;;23.20;99.90;;;;;;5063177;28;20225;-94
2022/05/06 11:57:39;;;;;;;7.55;4.93;;;23.90;99.90;;;;;;5031916;28;21218;-93
2022/05/06 12:00:06;;;;;;;6.63;4.55;;;23.10;99.90;;;;;;5047764;28;20186;-93
2022/05/06 12:02:33;;;;;;;4.85;3.50;;;23.10;99.90;;;;;;5048787;28;20182;-94
2022/05/06 12:04:59;;;;;;;7.15;3.80;;;22.80;99.90;;;;;;5048322;28;20224;-93
2022/05/06 12:07:47;;;;;;;6.75;4.35;;;22.80;99.90;;;;;;5048188;28;20206;-91
2022/05/06 12:10:30;;;;;;;7.07;3.90;;;22.90;99.90;;;;;;5047373;28;20213;-92
2022/05/06 12:13:03;;;;;;;10.77;4.40;;;22.90;99.90;;;;;;5048322;28;20218;-91
2022/05/06 12:15:38;;;;;;;10.55;5.90;;;22.10;99.90;;;;;;5036830;28;20225;-95
2022/05/06 12:18:05;;;;;;;8.73;5.78;;;22.50;99.90;;;;;;5050803;28;20569;-93
2022/05/06 12:20:33;;;;;;;7.70;5.50;;;23.00;99.90;;;;;;5049343;28;20721;-89
2022/05/06 12:22:59;;;;;;;7.13;4.85;;;23.30;99.90;;;;;;5049376;28;20229;-96
2022/05/06 12:25:25;;;;;;;7.65;5.38;;;22.90;99.90;;;;;;5032394;28;20213;-95
2022/05/06 12:28:06;;;;;;;7.65;4.72;;;22.70;99.90;;;;;;5064414;28;20252;-95
2022/05/06 12:30:33;;;;;;;8.27;5.10;;;22.80;99.90;;;;;;5064662;28;20225;-92
2022/05/06 12:33:03;;;;;;;7.30;4.40;;;22.70;99.90;;;;;;5047010;28;20213;-90
2022/05/06 12:35:29;;;;;;;7.78;5.20;;;22.60;99.90;;;;;;5029987;28;20194;-90
2022/05/06 12:38:01;;;;;;;5.47;4.30;;;22.70;99.90;;;;;;5027822;28;20570;-91
2022/05/06 12:40:34;;;;;;;6.03;4.00;;;22.70;99.90;;;;;;5046987;28;20217;-89
2022/05/06 12:43:08;;;;;;;6.43;4.55;;;21.80;99.90;;;;;;5045189;28;20229;-89
2022/05/06 12:45:34;;;;;;;6.97;4.88;;;21.90;99.90;;;;;;5044588;28;20326;-89
2022/05/06 12:50:44;;;;;;;6.13;4.25;;;22.20;99.90;;;;;;5046378;28;20221;-90
2022/05/06 12:53:10;;;;;;;7.80;4.85;;;22.30;99.90;;;;;;5028688;28;20370;-88
2022/05/06 12:55:37;;;;;;;8.43;4.77;;;22.40;99.90;;;;;;5029191;28;20736;-89
2022/05/06 12:58:03;;;;;;;6.93;4.57;;;21.90;99.90;;;;;;5045467;28;20216;-89
2022/05/06 13:00:29;;;;;;;6.77;5.17;;;22.20;99.90;;;;;;5044950;28;20571;-90
2022/05/06 13:02:55;;;;;;;6.60;4.88;;;21.90;99.90;;;;;;5012137;28;20190;-89
2022/05/06 13:05:21;;;;;;;6.20;4.28;;;22.20;99.90;;;;;;5029606;28;20214;-90
2022/05/06 13:07:47;;;;;;;4.75;4.22;;;22.10;99.90;;;;;;5045305;28;20732;-91
2022/05/06 13:10:13;;;;;;;7.68;5.30;;;21.50;99.90;;;;;;5045253;28;20275;-91
2022/05/06 13:12:39;;;;;;;6.57;5.20;;;21.50;99.90;;;;;;5044511;28;20259;-89
2022/05/06 13:15:06;;;;;;;7.00;5.13;;;21.70;99.90;;;;;;5045191;28;20198;-90
2022/05/06 13:17:31;;;;;;;5.90;4.87;;;21.50;99.90;;;;;;5029245;28;20193;-90
2022/05/06 13:19:57;;;;;;;7.32;4.63;;;21.60;99.90;;;;;;5044972;28;20214;-92
2022/05/06 13:22:25;;;;;;;8.07;5.30;;;21.80;99.90;;;;;;5012538;28;20221;-91
2022/05/06 13:24:51;;;;;;;7.77;6.07;;;22.10;99.90;;;;;;5028424;28;20210;-93
2022/05/06 13:27:17;;;;;;;8.55;5.30;;;22.20;99.90;;;;;;5045077;28;20218;-92
2022/05/06 13:29:42;;;;;;;9.52;5.20;;;22.20;99.90;;;;;;5044905;28;20190;-92